Time;durP1;ratioP1;P1;durP2;ratioP2;P2;SDS_P1;SDS_P2;PMS_P1;PMS_P2;Temp;Humidity;BMP_temperature;BMP_pressure;BME280_temperature;BME280_humidity;BME280_pressure;Samples;Min_cycle;Max_cycle;Signal;HPM_P1;HPM_P2
2022/08/09 00:00:16;;;;;;;8.90;8.30;;;15.90;99.90;;;;;;5029880;28;20453;-52
2022/08/09 00:02:42;;;;;;;8.60;8.10;;;15.90;99.90;;;;;;5029705;28;20438;-50
2022/08/09 00:05:08;;;;;;;8.60;8.00;;;15.80;99.90;;;;;;5030506;28;20456;-49
2022/08/09 00:07:33;;;;;;;11.47;8.60;;;15.80;99.90;;;;;;5031045;28;20199;-50
2022/08/09 00:09:59;;;;;;;8.63;7.83;;;15.70;99.90;;;;;;5028006;28;20206;-50
2022/08/09 00:12:25;;;;;;;9.33;8.73;;;15.80;99.90;;;;;;5029846;28;20179;-54
2022/08/09 00:14:51;;;;;;;9.17;8.30;;;15.70;99.90;;;;;;5030387;28;20274;-53
2022/08/09 00:17:16;;;;;;;8.47;7.70;;;15.70;99.90;;;;;;5045571;28;20286;-52
2022/08/09 00:19:42;;;;;;;9.47;8.77;;;15.70;99.90;;;;;;5030232;28;20552;-54
2022/08/09 00:22:08;;;;;;;9.07;8.47;;;15.60;99.90;;;;;;5029581;28;20198;-50
2022/08/09 00:24:33;;;;;;;8.80;8.20;;;15.60;99.90;;;;;;5029846;28;20223;-53
2022/08/09 00:27:00;;;;;;;8.23;7.73;;;15.60;99.90;;;;;;5028111;28;20554;-51
2022/08/09 00:29:26;;;;;;;9.10;8.60;;;15.50;99.90;;;;;;5028361;28;20195;-52
2022/08/09 00:31:53;;;;;;;9.07;8.47;;;15.50;99.90;;;;;;5029669;28;20539;-52
2022/08/09 00:34:19;;;;;;;8.80;8.20;;;15.50;99.90;;;;;;5029754;28;20437;-53
2022/08/09 00:36:44;;;;;;;8.67;8.17;;;15.50;99.90;;;;;;5029941;28;20448;-53
2022/08/09 00:39:10;;;;;;;9.13;8.50;;;15.40;99.90;;;;;;5028999;28;20477;-53
2022/08/09 00:41:36;;;;;;;9.17;8.60;;;15.40;99.90;;;;;;5029576;28;20175;-48
2022/08/09 00:44:02;;;;;;;8.97;8.27;;;15.40;99.90;;;;;;5029543;28;20199;-51
2022/08/09 00:46:27;;;;;;;8.90;8.20;;;15.30;99.90;;;;;;5028886;28;20186;-50
2022/08/09 00:48:53;;;;;;;8.90;8.30;;;15.30;99.90;;;;;;5028806;28;20496;-51
2022/08/09 00:51:19;;;;;;;9.10;8.50;;;15.30;99.90;;;;;;5029197;28;20604;-54
2022/08/09 00:53:45;;;;;;;9.47;8.67;;;15.30;99.90;;;;;;5028236;28;20202;-50
2022/08/09 00:56:12;;;;;;;9.27;8.67;;;15.30;99.90;;;;;;5029227;28;20229;-47
2022/08/09 00:58:38;;;;;;;9.60;8.80;;;15.20;99.90;;;;;;5027460;28;20437;-50
2022/08/09 01:01:20;;;;;;;9.50;8.90;;;15.20;99.90;;;;;;5029476;28;20950;-53
2022/08/09 01:04:05;;;;;;;9.47;8.70;;;15.10;99.90;;;;;;5028178;28;20191;-50
2022/08/09 01:06:45;;;;;;;9.60;8.90;;;15.00;99.90;;;;;;5029324;28;20429;-47
2022/08/09 01:09:38;;;;;;;9.40;8.73;;;15.00;99.90;;;;;;5028903;28;20491;-52
2022/08/09 01:12:28;;;;;;;9.43;8.53;;;14.90;99.90;;;;;;5010054;28;20403;-51
2022/08/09 01:15:09;;;;;;;9.50;8.90;;;15.00;99.90;;;;;;5025771;28;20447;-51
2022/08/09 01:17:55;;;;;;;9.30;8.60;;;14.90;99.90;;;;;;5029029;28;20453;-55
2022/08/09 01:20:47;;;;;;;9.40;8.80;;;14.90;99.90;;;;;;5025338;28;20982;-51
2022/08/09 01:23:42;;;;;;;9.40;8.60;;;14.90;99.90;;;;;;5028615;28;20437;-50
2022/08/09 01:26:23;;;;;;;9.67;8.40;;;14.80;99.90;;;;;;5025132;28;20445;-47
2022/08/09 01:28:53;;;;;;;9.30;8.40;;;14.80;99.90;;;;;;5028124;28;20465;-52
2022/08/09 01:31:24;;;;;;;8.83;8.23;;;14.80;99.90;;;;;;5027925;28;20437;-50
2022/08/09 01:33:53;;;;;;;9.30;8.60;;;14.80;99.90;;;;;;5028191;28;20511;-49
2022/08/09 01:36:25;;;;;;;9.20;8.60;;;14.70;99.90;;;;;;5029493;28;20428;-51
2022/08/09 01:38:51;;;;;;;9.37;8.70;;;14.70;99.90;;;;;;5028558;28;20809;-51
2022/08/09 01:41:27;;;;;;;9.17;8.50;;;14.60;99.90;;;;;;5028874;28;20416;-54
2022/08/09 01:43:55;;;;;;;9.60;8.90;;;14.60;99.90;;;;;;5028109;28;20539;-51
2022/08/09 01:46:28;;;;;;;9.97;9.17;;;14.60;99.90;;;;;;5029495;28;20421;-48
2022/08/09 01:49:05;;;;;;;9.27;8.57;;;14.50;99.90;;;;;;5026825;28;20466;-51
2022/08/09 01:51:31;;;;;;;10.13;9.33;;;14.50;99.90;;;;;;5024914;28;20450;-53
2022/08/09 01:54:00;;;;;;;9.40;8.70;;;14.40;99.90;;;;;;5028025;28;20966;-51
2022/08/09 01:56:27;;;;;;;9.97;9.17;;;14.40;99.90;;;;;;5028373;28;20464;-52
2022/08/09 01:58:56;;;;;;;9.80;9.10;;;14.40;99.90;;;;;;5027364;28;20440;-52
2022/08/09 02:01:24;;;;;;;9.97;9.20;;;14.30;99.90;;;;;;5026529;28;20445;-48
2022/08/09 02:03:50;;;;;;;9.80;9.10;;;14.30;99.90;;;;;;5027859;28;20434;-54
2022/08/09 02:07:07;;;;;;;9.43;8.70;;;14.30;99.90;;;;;;5028567;28;20433;-49
2022/08/09 02:09:04;;;;;;;9.53;8.83;;;14.30;99.90;;;;;;5027548;28;20452;-48
2022/08/09 02:11:30;;;;;;;10.37;9.57;;;14.30;99.90;;;;;;5028125;28;20465;-50
2022/08/09 02:13:56;;;;;;;9.93;9.03;;;14.20;99.90;;;;;;5026497;28;20922;-52
2022/08/09 02:16:22;;;;;;;10.27;9.20;;;14.20;99.90;;;;;;5027513;28;20194;-49
2022/08/09 02:18:48;;;;;;;9.30;8.60;;;14.20;99.90;;;;;;5027566;28;20906;-48
2022/08/09 02:21:18;;;;;;;10.07;9.27;;;14.30;99.90;;;;;;5027454;28;20575;-50
2022/08/09 02:23:51;;;;;;;10.40;9.40;;;14.20;99.90;;;;;;5028120;28;20264;-50
2022/08/09 02:26:18;;;;;;;9.83;9.13;;;14.20;99.90;;;;;;5027654;28;20430;-53
2022/08/09 02:28:49;;;;;;;10.00;9.20;;;14.20;99.90;;;;;;5028338;28;20982;-51
2022/08/09 02:31:26;;;;;;;10.33;9.53;;;14.10;99.90;;;;;;5027966;28;20445;-53
2022/08/09 02:33:55;;;;;;;9.70;8.90;;;14.10;99.90;;;;;;5030905;28;20440;-52
2022/08/09 02:36:26;;;;;;;10.17;9.37;;;14.00;99.90;;;;;;5029674;28;20429;-50
2022/08/09 02:38:57;;;;;;;10.63;9.83;;;14.00;99.90;;;;;;5019430;28;20463;-52
2022/08/09 02:41:39;;;;;;;9.73;8.97;;;13.90;99.90;;;;;;5031731;28;20529;-51
2022/08/09 02:44:10;;;;;;;9.60;8.77;;;13.90;99.90;;;;;;5031660;28;21049;-54
2022/08/09 02:46:38;;;;;;;9.80;9.10;;;13.80;99.90;;;;;;5032266;28;20884;-52
2022/08/09 02:49:09;;;;;;;10.43;9.53;;;13.80;99.90;;;;;;5030304;28;20768;-51
2022/08/09 02:51:37;;;;;;;10.97;9.90;;;13.70;99.90;;;;;;5029423;28;20451;-53
2022/08/09 02:54:05;;;;;;;9.80;9.00;;;13.60;99.90;;;;;;5031782;28;20532;-51
2022/08/09 02:56:32;;;;;;;10.93;9.83;;;13.70;99.90;;;;;;5031402;28;20451;-52
2022/08/09 02:58:59;;;;;;;9.60;8.80;;;13.70;99.90;;;;;;5030793;28;20465;-50
2022/08/09 03:01:26;;;;;;;10.13;9.43;;;13.60;99.90;;;;;;5029511;28;20441;-49
2022/08/09 03:03:53;;;;;;;9.63;8.83;;;13.60;99.90;;;;;;5030221;28;20441;-53
2022/08/09 03:06:21;;;;;;;9.97;9.17;;;13.60;99.90;;;;;;5030775;28;20449;-50
2022/08/09 03:08:48;;;;;;;9.60;8.80;;;13.60;99.90;;;;;;5032025;28;20933;-50
2022/08/09 03:11:17;;;;;;;9.47;8.67;;;13.50;99.90;;;;;;5029869;28;20441;-52
2022/08/09 03:13:44;;;;;;;8.80;8.20;;;13.50;99.90;;;;;;5029188;28;20503;-50
2022/08/09 03:16:10;;;;;;;9.50;8.90;;;13.50;99.90;;;;;;5031017;28;20445;-53
2022/08/09 03:18:36;;;;;;;10.10;9.30;;;13.40;99.90;;;;;;5030467;28;20465;-53
2022/08/09 03:21:04;;;;;;;9.93;9.27;;;13.40;99.90;;;;;;5031107;28;20451;-53
2022/08/09 03:23:29;;;;;;;9.83;8.93;;;13.30;99.90;;;;;;5030839;28;20430;-51
2022/08/09 03:25:57;;;;;;;9.93;9.23;;;13.30;99.90;;;;;;5031094;28;20440;-56
2022/08/09 03:28:24;;;;;;;10.50;9.70;;;13.30;99.90;;;;;;5029162;28;20532;-52
2022/08/09 03:30:51;;;;;;;9.63;8.73;;;13.30;99.90;;;;;;5030203;28;20889;-53
2022/08/09 03:33:18;;;;;;;9.20;8.40;;;13.30;99.90;;;;;;5030382;28;20493;-49
2022/08/09 03:35:44;;;;;;;9.60;8.90;;;13.30;99.90;;;;;;5030328;28;20442;-51
2022/08/09 03:38:10;;;;;;;9.60;8.90;;;13.30;99.90;;;;;;5029263;28;20445;-52
2022/08/09 03:40:36;;;;;;;9.53;8.73;;;13.30;99.90;;;;;;5020403;28;20439;-53
2022/08/09 03:43:01;;;;;;;9.63;9.03;;;13.30;99.90;;;;;;5030100;28;20242;-51
2022/08/09 03:45:27;;;;;;;9.10;8.40;;;13.20;99.90;;;;;;5030498;28;20592;-51
2022/08/09 03:47:52;;;;;;;9.37;8.50;;;13.20;99.90;;;;;;5030870;28;20182;-48
2022/08/09 03:50:19;;;;;;;9.80;9.00;;;13.20;99.90;;;;;;5029613;28;20675;-52
2022/08/09 03:52:46;;;;;;;9.30;8.60;;;13.10;99.90;;;;;;5030477;28;20701;-50
2022/08/09 03:55:12;;;;;;;10.27;9.23;;;13.20;99.90;;;;;;5028885;28;20523;-51
2022/08/09 03:57:38;;;;;;;10.23;9.30;;;13.20;99.90;;;;;;5029361;28;20472;-53
2022/08/09 04:00:05;;;;;;;10.00;9.20;;;13.10;99.90;;;;;;5028632;28;21194;-50
2022/08/09 04:02:31;;;;;;;11.47;9.43;;;13.10;99.90;;;;;;5030202;28;20441;-52
2022/08/09 04:04:59;;;;;;;10.77;9.77;;;13.10;99.90;;;;;;5030027;28;20433;-50
2022/08/09 04:07:26;;;;;;;9.57;8.67;;;13.20;99.90;;;;;;5030957;28;20422;-52
2022/08/09 04:09:52;;;;;;;9.67;8.77;;;13.20;99.90;;;;;;5027952;28;20447;-53
2022/08/09 04:12:44;;;;;;;9.30;8.50;;;13.20;99.90;;;;;;5030049;28;20516;-50
2022/08/09 04:15:10;;;;;;;10.00;9.20;;;13.20;99.90;;;;;;5027899;28;20649;-50
2022/08/09 04:17:36;;;;;;;10.00;9.30;;;13.20;99.90;;;;;;5026217;28;20437;-51
2022/08/09 04:20:02;;;;;;;9.40;8.60;;;13.20;99.90;;;;;;5020200;28;20566;-52
2022/08/09 04:22:27;;;;;;;9.47;8.67;;;13.20;99.90;;;;;;5020333;28;20194;-52
2022/08/09 04:24:53;;;;;;;10.63;9.80;;;13.30;99.90;;;;;;5021128;28;21109;-54
2022/08/09 04:27:19;;;;;;;9.23;8.50;;;13.20;99.90;;;;;;5019805;28;20190;-52
2022/08/09 04:29:44;;;;;;;10.10;9.23;;;13.20;99.90;;;;;;5019939;28;20203;-51
2022/08/09 04:32:10;;;;;;;10.37;9.50;;;13.20;99.90;;;;;;5019951;28;20241;-49
2022/08/09 04:34:35;;;;;;;10.37;9.47;;;13.30;99.90;;;;;;5020929;28;20226;-52
2022/08/09 04:37:01;;;;;;;9.40;8.60;;;13.30;99.90;;;;;;5021675;28;20237;-49
2022/08/09 04:39:27;;;;;;;10.70;9.70;;;13.30;99.90;;;;;;5019407;28;20202;-49
2022/08/09 04:41:53;;;;;;;9.90;9.10;;;13.30;99.90;;;;;;5021776;28;20448;-50
2022/08/09 04:44:19;;;;;;;9.93;9.13;;;13.50;99.90;;;;;;5029950;28;20193;-52
2022/08/09 04:46:44;;;;;;;9.93;9.03;;;13.50;99.90;;;;;;5030035;28;20526;-47
2022/08/09 04:49:10;;;;;;;9.97;9.07;;;13.60;99.90;;;;;;5029993;28;20191;-53
2022/08/09 04:51:35;;;;;;;9.97;9.20;;;13.70;99.90;;;;;;5030045;28;20194;-52
2022/08/09 04:54:01;;;;;;;10.50;9.70;;;13.80;99.90;;;;;;5029142;28;20183;-50
2022/08/09 04:56:27;;;;;;;10.57;9.77;;;13.80;99.90;;;;;;5029480;28;20232;-52
2022/08/09 04:58:53;;;;;;;9.90;8.90;;;13.80;99.90;;;;;;5029547;28;20504;-49
2022/08/09 05:01:18;;;;;;;10.30;9.40;;;13.80;99.90;;;;;;5029143;28;20195;-49
2022/08/09 05:03:44;;;;;;;10.33;9.53;;;13.80;99.90;;;;;;5029625;28;20692;-49
2022/08/09 05:06:12;;;;;;;10.40;9.50;;;13.90;99.90;;;;;;5023866;28;20191;-49
2022/08/09 05:08:38;;;;;;;10.47;9.57;;;13.90;99.90;;;;;;5022280;28;20179;-47
2022/08/09 05:11:05;;;;;;;10.00;9.30;;;14.10;99.90;;;;;;5024162;28;20457;-53
2022/08/09 05:13:30;;;;;;;9.70;9.00;;;14.10;99.90;;;;;;5028687;28;20205;-47
2022/08/09 05:15:56;;;;;;;9.50;8.83;;;14.30;99.90;;;;;;5029025;28;21203;-51
2022/08/09 05:18:22;;;;;;;9.67;8.80;;;14.20;99.90;;;;;;5029630;28;20190;-49
2022/08/09 05:20:47;;;;;;;10.03;9.33;;;14.20;99.90;;;;;;5029580;28;20685;-52
2022/08/09 05:23:13;;;;;;;10.00;9.20;;;14.30;99.90;;;;;;5029406;28;20605;-51
2022/08/09 05:25:38;;;;;;;10.20;9.20;;;14.40;99.90;;;;;;5028944;28;20194;-53
2022/08/09 05:28:04;;;;;;;10.27;9.47;;;14.40;99.90;;;;;;5029349;28;20549;-50
2022/08/09 05:30:30;;;;;;;9.40;8.60;;;14.50;99.90;;;;;;5029298;28;20269;-50
2022/08/09 05:32:56;;;;;;;9.97;9.10;;;14.60;99.90;;;;;;5027688;28;20238;-54
2022/08/09 05:35:22;;;;;;;10.40;9.50;;;14.60;99.90;;;;;;5028883;28;20594;-49
2022/08/09 05:37:48;;;;;;;10.07;9.27;;;14.70;99.90;;;;;;5029139;28;20237;-51
2022/08/09 05:40:14;;;;;;;9.80;9.07;;;14.80;99.90;;;;;;5028994;28;20467;-51
2022/08/09 05:42:40;;;;;;;9.70;9.00;;;14.90;99.90;;;;;;5028159;28;20903;-52
2022/08/09 05:45:06;;;;;;;10.23;9.33;;;14.90;99.90;;;;;;5029011;28;20500;-52
2022/08/09 05:47:32;;;;;;;9.57;8.77;;;14.90;99.90;;;;;;5028951;28;20824;-52
2022/08/09 05:49:57;;;;;;;9.97;9.27;;;15.00;99.90;;;;;;5028202;28;20426;-55
2022/08/09 05:52:23;;;;;;;9.80;8.97;;;15.10;99.90;;;;;;5027930;28;20186;-52
2022/08/09 05:54:49;;;;;;;10.20;9.20;;;15.20;99.90;;;;;;5028998;28;20189;-53
2022/08/09 05:57:16;;;;;;;9.70;8.90;;;15.40;99.90;;;;;;5028807;28;20649;-50
2022/08/09 05:59:41;;;;;;;10.00;9.20;;;15.40;99.90;;;;;;5027844;28;20476;-51
2022/08/09 06:02:07;;;;;;;9.43;8.73;;;15.50;99.90;;;;;;5028742;28;20410;-50
2022/08/09 06:04:35;;;;;;;9.70;8.90;;;15.60;99.90;;;;;;5028927;28;20241;-51
2022/08/09 06:07:01;;;;;;;10.07;9.10;;;15.70;99.90;;;;;;5029079;28;20786;-53
2022/08/09 06:09:26;;;;;;;9.80;8.80;;;15.80;99.90;;;;;;5032666;28;21207;-53
2022/08/09 06:11:52;;;;;;;9.37;8.60;;;16.00;99.90;;;;;;5032735;28;20425;-56
2022/08/09 06:14:18;;;;;;;8.97;8.37;;;16.10;99.90;;;;;;5033018;28;20222;-53
2022/08/09 06:16:43;;;;;;;10.00;9.10;;;16.20;99.90;;;;;;5032029;28;20510;-50
2022/08/09 06:19:09;;;;;;;9.27;8.47;;;16.30;99.90;;;;;;5032459;28;20215;-49
2022/08/09 06:21:34;;;;;;;9.33;8.70;;;16.40;99.90;;;;;;5031741;28;20263;-52
2022/08/09 06:24:00;;;;;;;9.53;8.83;;;16.60;99.90;;;;;;5028317;28;20871;-52
2022/08/09 06:26:26;;;;;;;9.10;8.47;;;16.70;99.90;;;;;;5026727;28;20234;-50
2022/08/09 06:28:53;;;;;;;9.23;8.57;;;16.80;99.90;;;;;;5030930;28;20192;-55
2022/08/09 06:31:19;;;;;;;10.10;8.90;;;17.00;99.90;;;;;;5021954;28;20668;-50
2022/08/09 06:33:44;;;;;;;9.13;8.53;;;17.10;99.90;;;;;;5027018;28;20437;-50
2022/08/09 06:36:10;;;;;;;8.97;8.40;;;17.30;99.90;;;;;;5022803;28;20205;-53
2022/08/09 06:38:36;;;;;;;8.40;7.83;;;17.40;99.90;;;;;;5030190;28;20253;-51
2022/08/09 06:41:02;;;;;;;9.57;8.93;;;17.50;99.90;;;;;;5031368;28;20271;-52
2022/08/09 06:43:27;;;;;;;9.13;8.53;;;17.70;99.90;;;;;;5032233;28;20194;-52
2022/08/09 06:45:53;;;;;;;8.47;7.87;;;17.80;99.20;;;;;;5030512;28;20239;-51
2022/08/09 06:48:19;;;;;;;8.70;8.10;;;17.80;98.90;;;;;;5028963;28;20214;-50
2022/08/09 06:50:45;;;;;;;9.07;8.47;;;18.00;98.00;;;;;;5028735;28;20453;-48
2022/08/09 06:53:11;;;;;;;9.80;9.00;;;18.10;97.50;;;;;;5029565;28;20202;-49
2022/08/09 06:55:36;;;;;;;9.40;8.70;;;18.20;97.20;;;;;;5027217;28;20487;-52
2022/08/09 06:58:02;;;;;;;9.73;8.97;;;18.30;97.10;;;;;;5012171;28;20232;-47
2022/08/09 07:00:28;;;;;;;9.13;8.53;;;18.40;96.80;;;;;;5011948;28;20693;-51
2022/08/09 07:02:54;;;;;;;8.90;8.30;;;18.50;96.30;;;;;;5020434;28;20195;-52
2022/08/09 07:05:20;;;;;;;9.23;8.40;;;18.70;95.30;;;;;;5031745;28;20517;-53
2022/08/09 07:07:45;;;;;;;8.77;8.17;;;18.80;93.90;;;;;;5031975;28;20832;-51
2022/08/09 07:10:11;;;;;;;8.80;8.20;;;19.00;93.20;;;;;;5031502;28;20202;-50
2022/08/09 07:12:37;;;;;;;9.23;8.63;;;19.10;92.80;;;;;;5031863;28;20202;-49
2022/08/09 07:15:03;;;;;;;9.23;8.63;;;19.20;93.00;;;;;;5031112;28;20195;-50
2022/08/09 07:17:29;;;;;;;9.33;8.53;;;19.30;92.70;;;;;;5015234;28;20203;-53
2022/08/09 07:19:55;;;;;;;8.63;8.13;;;19.50;92.50;;;;;;5011301;28;20926;-52
2022/08/09 07:22:24;;;;;;;9.80;9.00;;;19.70;92.70;;;;;;5011553;28;20176;-53
2022/08/09 07:24:49;;;;;;;8.70;8.10;;;19.80;91.70;;;;;;5011607;28;20331;-51
2022/08/09 07:27:16;;;;;;;9.30;8.10;;;20.00;90.80;;;;;;5011834;28;20501;-52
2022/08/09 07:29:41;;;;;;;9.10;8.50;;;20.20;90.00;;;;;;5027305;28;20205;-51
2022/08/09 07:32:07;;;;;;;8.60;7.80;;;20.40;87.90;;;;;;5030170;28;20467;-52
2022/08/09 07:34:33;;;;;;;7.97;7.27;;;20.60;83.50;;;;;;5028498;28;20198;-48
2022/08/09 07:36:59;;;;;;;8.17;7.57;;;20.80;82.50;;;;;;5029131;28;20193;-53
2022/08/09 07:39:25;;;;;;;8.23;7.63;;;21.00;81.30;;;;;;5030312;28;20584;-50
2022/08/09 07:41:51;;;;;;;8.30;7.57;;;21.20;79.40;;;;;;5029686;28;20572;-48
2022/08/09 07:44:16;;;;;;;8.00;7.40;;;21.40;76.90;;;;;;5030977;28;20242;-52
2022/08/09 07:46:42;;;;;;;7.73;7.23;;;21.60;74.60;;;;;;5030017;28;20271;-50
2022/08/09 07:49:08;;;;;;;7.80;7.20;;;21.70;71.80;;;;;;5028110;28;20197;-52
2022/08/09 07:51:33;;;;;;;7.87;7.47;;;21.80;69.80;;;;;;5024705;28;20256;-52
2022/08/09 07:53:59;;;;;;;7.60;7.20;;;22.00;68.10;;;;;;5030024;28;20202;-53
2022/08/09 07:56:26;;;;;;;8.50;7.00;;;22.10;66.70;;;;;;5030926;28;20572;-54
2022/08/09 07:58:52;;;;;;;7.67;7.13;;;22.20;65.60;;;;;;5029384;28;20295;-50
2022/08/09 08:01:18;;;;;;;7.13;6.50;;;22.40;63.60;;;;;;5030588;28;20511;-51
2022/08/09 08:03:44;;;;;;;7.23;6.83;;;22.50;62.60;;;;;;5029871;28;20178;-52
2022/08/09 08:06:10;;;;;;;8.40;7.80;;;22.70;60.30;;;;;;5030456;28;20539;-52
2022/08/09 08:08:36;;;;;;;7.13;6.73;;;22.90;59.80;;;;;;5030504;28;20201;-53
2022/08/09 08:11:01;;;;;;;7.60;7.20;;;23.00;58.60;;;;;;5030537;28;20198;-51
2022/08/09 08:13:27;;;;;;;7.67;7.00;;;23.20;57.60;;;;;;5030105;28;20199;-51
2022/08/09 08:15:53;;;;;;;7.20;6.80;;;23.40;56.50;;;;;;5030305;28;20278;-54
2022/08/09 08:18:18;;;;;;;6.80;6.40;;;23.60;53.20;;;;;;5028274;28;20351;-52
2022/08/09 08:20:44;;;;;;;7.03;6.63;;;23.80;51.80;;;;;;5029267;28;20213;-53
2022/08/09 08:23:11;;;;;;;6.93;6.47;;;24.00;50.70;;;;;;5025530;28;20195;-51
2022/08/09 08:25:37;;;;;;;7.17;6.67;;;24.10;50.00;;;;;;5027466;28;20199;-53
2022/08/09 08:28:03;;;;;;;6.83;6.53;;;24.30;49.10;;;;;;5028081;28;20445;-53
2022/08/09 08:30:29;;;;;;;6.30;6.00;;;24.50;46.90;;;;;;5028952;28;20452;-49
2022/08/09 08:32:55;;;;;;;6.20;5.80;;;24.70;46.70;;;;;;5026078;28;20964;-51
2022/08/09 08:35:21;;;;;;;6.70;6.30;;;24.80;45.60;;;;;;5023600;28;20568;-49
2022/08/09 08:37:47;;;;;;;7.20;6.60;;;24.90;44.70;;;;;;5025887;28;20441;-50
2022/08/09 08:40:13;;;;;;;6.80;6.50;;;24.90;44.40;;;;;;5028750;28;20809;-49
2022/08/09 08:42:43;;;;;;;6.67;6.27;;;24.80;43.80;;;;;;5028709;28;20649;-52
2022/08/09 08:45:10;;;;;;;7.00;6.50;;;24.90;43.60;;;;;;5028629;28;20459;-51
2022/08/09 08:47:39;;;;;;;6.10;5.80;;;24.90;43.90;;;;;;5024275;28;20437;-53
2022/08/09 08:50:05;;;;;;;6.60;6.00;;;25.00;43.50;;;;;;5025298;28;20931;-54
2022/08/09 08:52:32;;;;;;;7.30;6.90;;;25.30;42.10;;;;;;5029112;28;20426;-53
2022/08/09 08:54:59;;;;;;;7.10;6.70;;;25.40;41.50;;;;;;5029120;28;20446;-53
2022/08/09 08:57:26;;;;;;;6.80;6.40;;;25.40;42.10;;;;;;5027610;28;20453;-53
2022/08/09 08:59:52;;;;;;;6.10;5.60;;;25.60;40.30;;;;;;5029646;28;20471;-50
2022/08/09 09:02:26;;;;;;;7.57;7.00;;;25.60;40.80;;;;;;5029184;28;21002;-51
2022/08/09 09:04:54;;;;;;;7.20;6.63;;;25.80;39.80;;;;;;5029612;28;20414;-52
2022/08/09 09:07:20;;;;;;;5.87;5.53;;;25.80;39.20;;;;;;5028553;28;20514;-50
2022/08/09 09:09:47;;;;;;;5.70;5.37;;;25.80;38.80;;;;;;5029483;28;20515;-50
2022/08/09 09:12:21;;;;;;;6.60;5.93;;;25.90;38.60;;;;;;5027135;28;20219;-50
2022/08/09 09:14:48;;;;;;;6.57;6.17;;;26.10;38.20;;;;;;5029304;28;20427;-51
2022/08/09 09:17:15;;;;;;;6.57;6.27;;;26.30;37.10;;;;;;5010776;28;20530;-52
2022/08/09 09:19:41;;;;;;;6.00;5.70;;;26.40;36.80;;;;;;5009649;28;20472;-51
2022/08/09 09:22:12;;;;;;;6.50;6.20;;;26.50;37.00;;;;;;5009411;28;20451;-50
2022/08/09 09:24:46;;;;;;;6.40;5.77;;;26.70;35.50;;;;;;5009621;28;20492;-51
2022/08/09 09:27:19;;;;;;;6.17;5.87;;;26.70;36.60;;;;;;5013425;28;20541;-51
2022/08/09 09:29:45;;;;;;;6.70;6.10;;;26.90;36.50;;;;;;5029132;28;20431;-54
2022/08/09 09:32:17;;;;;;;6.57;6.17;;;27.10;36.20;;;;;;5026475;28;20500;-50
2022/08/09 09:35:06;;;;;;;6.03;5.73;;;27.20;34.40;;;;;;5028942;28;20511;-51
2022/08/09 09:37:33;;;;;;;6.30;5.73;;;27.10;34.30;;;;;;5028700;28;20432;-48
2022/08/09 09:39:59;;;;;;;6.40;6.10;;;27.20;33.60;;;;;;5028870;28;20602;-52
2022/08/09 09:42:28;;;;;;;6.17;5.77;;;27.20;33.80;;;;;;5028793;28;20516;-51
2022/08/09 09:44:59;;;;;;;6.67;6.27;;;27.10;34.60;;;;;;5028178;28;20245;-50
2022/08/09 09:47:27;;;;;;;6.67;6.20;;;27.20;35.70;;;;;;5028729;28;20432;-49
2022/08/09 09:49:54;;;;;;;6.83;6.33;;;27.30;35.00;;;;;;5028796;28;20513;-54
2022/08/09 09:52:20;;;;;;;6.57;6.20;;;27.40;35.40;;;;;;5028709;28;20484;-49
2022/08/09 09:54:46;;;;;;;6.47;6.07;;;27.60;34.70;;;;;;5028197;28;20420;-52
2022/08/09 09:57:16;;;;;;;6.53;6.03;;;27.70;33.30;;;;;;5027852;28;20441;-53
2022/08/09 09:59:42;;;;;;;6.53;6.10;;;27.80;33.00;;;;;;5028611;28;20210;-54
2022/08/09 10:02:09;;;;;;;6.73;6.33;;;27.90;33.10;;;;;;5028787;28;20429;-49
2022/08/09 10:04:35;;;;;;;18.17;6.03;;;28.20;31.50;;;;;;5027942;28;20422;-50
2022/08/09 10:07:00;;;;;;;6.20;5.90;;;28.20;31.70;;;;;;5028588;28;20425;-53
2022/08/09 10:09:26;;;;;;;6.77;6.23;;;28.30;30.60;;;;;;5028498;28;20202;-52
2022/08/09 10:12:00;;;;;;;6.43;6.10;;;28.20;29.50;;;;;;5028605;28;20194;-53
2022/08/09 10:14:29;;;;;;;6.63;6.23;;;28.20;30.10;;;;;;5028159;28;20224;-51
2022/08/09 10:16:56;;;;;;;5.97;5.63;;;28.30;30.50;;;;;;5028717;28;20567;-51
2022/08/09 10:19:36;;;;;;;6.60;6.20;;;28.30;30.60;;;;;;5027246;28;20464;-51
2022/08/09 10:22:02;;;;;;;6.13;5.83;;;28.50;30.00;;;;;;5028611;28;20851;-50
2022/08/09 10:24:28;;;;;;;6.57;6.10;;;28.50;29.80;;;;;;5013251;28;20477;-54
2022/08/09 10:26:55;;;;;;;6.00;5.70;;;28.60;28.60;;;;;;5028020;28;20457;-50
2022/08/09 10:29:21;;;;;;;6.43;6.10;;;28.70;29.00;;;;;;5027743;28;20457;-53
2022/08/09 10:31:48;;;;;;;6.30;5.93;;;28.70;29.20;;;;;;5027561;28;20476;-50
2022/08/09 10:34:15;;;;;;;6.77;6.40;;;28.80;29.20;;;;;;5028516;28;20460;-52
2022/08/09 10:36:41;;;;;;;6.83;6.43;;;28.90;29.10;;;;;;5028396;28;20611;-46
2022/08/09 10:39:07;;;;;;;6.37;6.07;;;29.10;28.10;;;;;;5028396;28;20929;-50
2022/08/09 10:41:34;;;;;;;6.77;6.33;;;29.10;28.50;;;;;;5026613;28;20538;-52
2022/08/09 10:44:00;;;;;;;6.53;6.23;;;29.00;28.30;;;;;;5028444;28;20178;-51
2022/08/09 10:46:43;;;;;;;6.70;6.10;;;28.90;28.70;;;;;;5027480;28;20573;-51
2022/08/09 10:49:31;;;;;;;6.00;5.60;;;28.90;28.60;;;;;;5022575;28;20966;-50
2022/08/09 10:52:19;;;;;;;7.23;6.53;;;28.90;28.50;;;;;;5028487;28;21297;-47
2022/08/09 10:54:46;;;;;;;6.07;5.67;;;29.10;27.90;;;;;;5029507;28;20432;-50
2022/08/09 10:57:13;;;;;;;6.47;6.10;;;29.20;27.40;;;;;;5032244;28;20409;-48
2022/08/09 10:59:40;;;;;;;6.57;6.27;;;29.20;27.40;;;;;;5032147;28;20461;-54
2022/08/09 11:02:07;;;;;;;7.00;6.50;;;29.20;27.90;;;;;;5031216;28;20436;-51
2022/08/09 11:04:34;;;;;;;6.50;6.20;;;29.20;27.60;;;;;;5030915;28;20426;-48
2022/08/09 11:07:00;;;;;;;6.83;6.53;;;29.40;26.90;;;;;;5031775;28;20935;-55
2022/08/09 11:09:37;;;;;;;7.23;6.83;;;29.70;26.80;;;;;;5031524;28;20428;-52
2022/08/09 11:12:16;;;;;;;6.20;5.90;;;30.10;26.60;;;;;;5026312;28;20187;-51
2022/08/09 11:14:50;;;;;;;7.10;6.60;;;30.40;25.00;;;;;;5029796;28;20436;-49
2022/08/09 11:17:15;;;;;;;6.20;5.90;;;30.70;24.10;;;;;;5028704;28;20549;-49
2022/08/09 11:19:57;;;;;;;6.70;6.27;;;30.80;25.20;;;;;;5021079;28;21097;-53
2022/08/09 11:22:44;;;;;;;7.50;7.00;;;31.20;24.20;;;;;;5027935;28;20184;-57
2022/08/09 11:25:40;;;;;;;7.83;7.23;;;31.30;23.50;;;;;;5021798;28;20422;-55
2022/08/09 11:28:28;;;;;;;6.30;5.90;;;31.50;23.50;;;;;;5025615;28;20488;-52
2022/08/09 11:30:54;;;;;;;7.20;6.80;;;31.40;23.60;;;;;;5031297;28;20424;-52
2022/08/09 11:33:19;;;;;;;6.03;5.73;;;31.30;23.60;;;;;;5030825;28;20990;-55
2022/08/09 11:35:46;;;;;;;6.93;6.60;;;31.20;23.10;;;;;;5030698;28;20728;-51
2022/08/09 11:38:20;;;;;;;5.97;5.67;;;31.20;23.80;;;;;;5031074;28;20193;-50
2022/08/09 11:40:46;;;;;;;6.90;6.60;;;31.30;23.30;;;;;;5031052;28;20483;-53
2022/08/09 11:43:28;;;;;;;7.37;6.73;;;31.30;23.30;;;;;;5030987;28;20791;-53
2022/08/09 11:45:59;;;;;;;6.80;6.40;;;31.40;23.40;;;;;;5029398;28;20520;-56
2022/08/09 11:48:44;;;;;;;6.57;6.27;;;31.20;23.30;;;;;;5030718;28;20432;-55
2022/08/09 11:51:10;;;;;;;7.07;6.40;;;31.10;23.50;;;;;;5031021;28;20418;-53
2022/08/09 11:53:39;;;;;;;7.03;6.63;;;30.90;23.30;;;;;;5030914;28;20756;-55
2022/08/09 11:56:14;;;;;;;6.33;6.03;;;30.80;23.80;;;;;;5030399;28;20183;-50
2022/08/09 11:58:40;;;;;;;6.80;6.50;;;30.60;23.50;;;;;;5030680;28;20949;-52
2022/08/09 12:01:06;;;;;;;6.60;6.30;;;30.70;23.70;;;;;;5030699;28;20507;-50
2022/08/09 12:03:32;;;;;;;7.57;7.13;;;30.70;23.70;;;;;;5029740;28;20813;-53
2022/08/09 12:06:11;;;;;;;7.53;7.13;;;30.50;23.30;;;;;;5028277;28;20680;-55
2022/08/09 12:08:43;;;;;;;5.73;5.43;;;30.40;23.70;;;;;;5032076;28;20936;-51
2022/08/09 12:11:12;;;;;;;5.90;5.60;;;30.50;24.10;;;;;;5010936;28;20483;-53
2022/08/09 12:13:46;;;;;;;6.27;5.97;;;30.70;24.10;;;;;;5010991;28;20572;-54
2022/08/09 12:16:15;;;;;;;7.00;6.60;;;31.10;23.60;;;;;;5016316;28;20416;-54
2022/08/09 12:18:44;;;;;;;6.63;6.10;;;31.30;23.20;;;;;;5030242;28;20446;-53
2022/08/09 12:21:11;;;;;;;6.57;6.27;;;31.60;22.40;;;;;;5029561;28;20924;-54
2022/08/09 12:23:44;;;;;;;7.27;6.67;;;31.60;21.90;;;;;;5030259;28;20458;-52
2022/08/09 12:26:11;;;;;;;6.90;6.50;;;31.70;21.70;;;;;;5029954;28;20421;-53
2022/08/09 12:28:40;;;;;;;6.80;6.40;;;31.70;21.50;;;;;;5030053;28;20483;-53
2022/08/09 12:31:20;;;;;;;6.17;5.67;;;31.80;21.50;;;;;;5029917;28;20526;-53
2022/08/09 12:33:46;;;;;;;7.17;6.77;;;32.20;21.00;;;;;;5029197;28;20515;-53
2022/08/09 12:36:12;;;;;;;6.30;6.00;;;32.40;20.40;;;;;;5028672;28;20958;-51
2022/08/09 12:38:38;;;;;;;6.67;6.17;;;32.60;20.00;;;;;;5028975;28;20429;-54
2022/08/09 12:41:04;;;;;;;7.00;6.50;;;32.70;20.60;;;;;;5029823;28;20195;-52
2022/08/09 12:43:30;;;;;;;6.20;5.90;;;32.60;20.40;;;;;;5030048;28;20633;-50
2022/08/09 12:45:57;;;;;;;6.10;5.47;;;32.60;20.90;;;;;;5029586;28;20434;-51
2022/08/09 12:48:23;;;;;;;7.27;6.67;;;32.50;20.40;;;;;;5029703;28;20804;-49
2022/08/09 12:50:49;;;;;;;6.33;5.93;;;32.20;21.10;;;;;;5028975;28;20452;-53